Time;durP1;ratioP1;P1;durP2;ratioP2;P2;SDS_P1;SDS_P2;PMS_P1;PMS_P2;Temp;Humidity;BMP_temperature;BMP_pressure;BME280_temperature;BME280_humidity;BME280_pressure;Samples;Min_cycle;Max_cycle;Signal;HPM_P1;HPM_P2
2022/08/19 00:02:03;;;;;;;;;5.00;5.00;;;;;;;;5075828;27;46482;-71
2022/08/19 00:04:34;;;;;;;;;8.00;8.00;;;;;;;;5076500;27;45324;-71
2022/08/19 00:07:00;;;;;;;;;6.00;6.00;;;;;;;;5076245;28;45277;-71
2022/08/19 00:09:25;;;;;;;;;6.33;6.33;;;;;;;;5076128;27;45503;-71
2022/08/19 00:11:51;;;;;;;;;4.67;4.33;;;;;;;;5076314;28;46346;-70
2022/08/19 00:14:16;;;;;;;;;6.33;6.33;;;;;;;;5075876;27;45590;-71
2022/08/19 00:16:43;;;;;;;;;8.75;6.00;;;;;;;;5075566;27;45393;-71
2022/08/19 00:19:08;;;;;;;;;9.33;7.00;;;;;;;;5075808;28;45404;-71
2022/08/19 00:21:38;;;;;;;;;6.00;5.00;;;;;;;;5075998;27;45338;-71
2022/08/19 00:24:03;;;;;;;;;3.67;3.67;;;;;;;;5076212;27;45369;-70
2022/08/19 00:26:28;;;;;;;;;5.67;5.67;;;;;;;;5076069;27;45366;-71
2022/08/19 00:28:54;;;;;;;;;7.00;6.00;;;;;;;;5075897;27;45609;-71
2022/08/19 00:31:20;;;;;;;;;6.67;6.67;;;;;;;;5075664;28;45441;-70
2022/08/19 00:33:45;;;;;;;;;6.67;6.00;;;;;;;;5075991;28;45410;-70
2022/08/19 00:36:11;;;;;;;;;6.00;6.00;;;;;;;;5076179;28;45322;-71
2022/08/19 00:38:41;;;;;;;;;6.67;6.67;;;;;;;;5075847;27;45321;-70
2022/08/19 00:41:07;;;;;;;;;7.00;7.00;;;;;;;;5075602;28;45237;-70
2022/08/19 00:43:32;;;;;;;;;5.00;5.00;;;;;;;;5075486;27;45466;-70
2022/08/19 00:45:57;;;;;;;;;6.67;6.67;;;;;;;;5075753;27;45406;-71
2022/08/19 00:48:23;;;;;;;;;6.67;5.67;;;;;;;;5075333;28;45300;-71
2022/08/19 00:50:50;;;;;;;;;8.33;8.33;;;;;;;;5075598;27;46849;-71
2022/08/19 00:53:19;;;;;;;;;8.00;8.00;;;;;;;;5075982;27;45487;-70
2022/08/19 00:55:48;;;;;;;;;7.33;6.00;;;;;;;;5075786;27;45262;-71
2022/08/19 00:58:15;;;;;;;;;6.67;6.67;;;;;;;;5075989;27;45536;-71
2022/08/19 01:00:40;;;;;;;;;8.67;8.00;;;;;;;;5075058;27;47427;-70
2022/08/19 01:03:07;;;;;;;;;6.67;6.67;;;;;;;;5083218;27;45497;-70
2022/08/19 01:05:32;;;;;;;;;6.67;6.00;;;;;;;;5095968;27;45315;-71
2022/08/19 01:08:00;;;;;;;;;5.33;5.33;;;;;;;;5095871;27;45563;-71
2022/08/19 01:10:27;;;;;;;;;5.67;5.67;;;;;;;;5095385;27;46218;-71
2022/08/19 01:12:53;;;;;;;;;7.00;7.00;;;;;;;;5095804;27;45362;-71
2022/08/19 01:15:21;;;;;;;;;6.67;6.67;;;;;;;;5095486;27;45395;-70
2022/08/19 01:17:46;;;;;;;;;7.00;7.00;;;;;;;;5095943;27;45385;-71
2022/08/19 01:20:17;;;;;;;;;7.33;7.33;;;;;;;;5095792;27;46348;-71
2022/08/19 01:22:45;;;;;;;;;7.00;6.33;;;;;;;;5095933;27;45409;-71
2022/08/19 01:25:12;;;;;;;;;8.33;8.33;;;;;;;;5081736;27;45509;-71
2022/08/19 01:27:41;;;;;;;;;6.33;6.33;;;;;;;;5095782;27;45867;-70
2022/08/19 01:30:07;;;;;;;;;7.67;7.00;;;;;;;;5097793;27;46427;-71
2022/08/19 01:32:32;;;;;;;;;6.67;6.67;;;;;;;;5099137;27;45413;-71
2022/08/19 01:34:57;;;;;;;;;4.33;4.33;;;;;;;;5099192;27;45428;-71
2022/08/19 01:37:23;;;;;;;;;6.00;6.00;;;;;;;;5099280;27;45412;-71
2022/08/19 01:39:48;;;;;;;;;7.00;4.67;;;;;;;;5099072;27;46034;-70
2022/08/19 01:42:14;;;;;;;;;5.33;5.33;;;;;;;;5098970;27;45301;-71
2022/08/19 01:44:40;;;;;;;;;7.67;6.67;;;;;;;;5098999;27;45346;-71
2022/08/19 01:47:06;;;;;;;;;8.67;7.00;;;;;;;;5099206;27;45397;-71
2022/08/19 01:49:32;;;;;;;;;8.00;6.00;;;;;;;;5098748;27;46160;-70
2022/08/19 01:51:59;;;;;;;;;6.00;6.00;;;;;;;;5099274;27;45359;-71
2022/08/19 01:54:25;;;;;;;;;6.33;6.33;;;;;;;;5099358;27;45384;-70
2022/08/19 01:56:57;;;;;;;;;6.67;6.00;;;;;;;;5099016;27;45283;-71
2022/08/19 01:59:23;;;;;;;;;7.00;7.00;;;;;;;;5098497;27;46142;-71
2022/08/19 02:01:48;;;;;;;;;4.33;4.33;;;;;;;;5094378;27;45229;-71
2022/08/19 02:04:14;;;;;;;;;4.00;4.00;;;;;;;;5078197;27;45451;-71
2022/08/19 02:06:39;;;;;;;;;5.00;5.00;;;;;;;;5078294;27;45198;-71
2022/08/19 02:09:05;;;;;;;;;5.33;5.33;;;;;;;;5078214;27;45327;-70
2022/08/19 02:11:33;;;;;;;;;4.33;4.33;;;;;;;;5078186;27;45389;-71
2022/08/19 02:13:59;;;;;;;;;5.33;4.33;;;;;;;;5077901;27;46763;-70
2022/08/19 02:16:24;;;;;;;;;6.00;6.00;;;;;;;;5077982;27;45438;-71
2022/08/19 02:18:49;;;;;;;;;7.33;5.00;;;;;;;;5078066;27;46345;-70
2022/08/19 02:21:19;;;;;;;;;5.00;5.00;;;;;;;;5077843;27;45486;-70
2022/08/19 02:23:44;;;;;;;;;6.00;5.33;;;;;;;;5078294;27;45474;-70
2022/08/19 02:26:09;;;;;;;;;6.33;6.33;;;;;;;;5077496;27;45701;-71
2022/08/19 02:28:36;;;;;;;;;6.33;5.67;;;;;;;;5077377;27;46045;-71
2022/08/19 02:31:02;;;;;;;;;6.33;5.67;;;;;;;;5078183;27;45420;-70
2022/08/19 02:33:27;;;;;;;;;5.33;5.33;;;;;;;;5077924;27;45430;-70
2022/08/19 02:35:52;;;;;;;;;5.67;5.33;;;;;;;;5077999;27;45406;-70
2022/08/19 02:38:27;;;;;;;;;4.00;4.00;;;;;;;;5077493;27;46129;-70
2022/08/19 02:40:59;;;;;;;;;6.00;6.00;;;;;;;;5077478;27;45297;-70
2022/08/19 02:43:25;;;;;;;;;5.67;4.67;;;;;;;;5077574;27;45415;-70
2022/08/19 02:45:51;;;;;;;;;5.00;5.00;;;;;;;;5077984;27;46840;-70
2022/08/19 02:48:18;;;;;;;;;4.00;4.00;;;;;;;;5059271;27;45347;-70
2022/08/19 02:50:44;;;;;;;;;4.67;4.33;;;;;;;;5077616;27;45406;-70
2022/08/19 02:53:09;;;;;;;;;6.67;6.33;;;;;;;;5077804;27;45419;-70
2022/08/19 02:55:34;;;;;;;;;7.00;5.00;;;;;;;;5059450;28;45468;-70
2022/08/19 02:57:59;;;;;;;;;5.00;5.00;;;;;;;;5077411;27;45328;-70
2022/08/19 03:00:26;;;;;;;;;4.00;4.00;;;;;;;;5077562;27;45500;-70
2022/08/19 03:02:51;;;;;;;;;5.33;5.33;;;;;;;;5077361;27;45411;-70
2022/08/19 03:05:16;;;;;;;;;5.67;4.33;;;;;;;;5077413;27;45474;-71
2022/08/19 03:07:41;;;;;;;;;3.33;2.33;;;;;;;;5077399;27;46115;-71
2022/08/19 03:10:07;;;;;;;;;4.33;4.33;;;;;;;;5076713;27;45284;-71
2022/08/19 03:12:35;;;;;;;;;4.00;4.00;;;;;;;;5076812;27;45341;-70
2022/08/19 03:15:00;;;;;;;;;3.67;3.67;;;;;;;;5077072;27;45476;-71
2022/08/19 03:17:26;;;;;;;;;4.33;2.67;;;;;;;;5077223;27;47065;-70
2022/08/19 03:19:51;;;;;;;;;3.00;3.00;;;;;;;;5077043;27;45263;-70
2022/08/19 03:22:16;;;;;;;;;4.67;3.67;;;;;;;;5059231;28;45393;-71
2022/08/19 03:24:41;;;;;;;;;3.33;3.33;;;;;;;;5076988;27;45217;-70
2022/08/19 03:27:07;;;;;;;;;4.67;4.67;;;;;;;;5077084;28;45924;-71
2022/08/19 03:29:32;;;;;;;;;4.67;4.00;;;;;;;;5076719;27;45263;-70
2022/08/19 03:32:00;;;;;;;;;2.00;2.00;;;;;;;;5063140;28;45294;-70
2022/08/19 03:34:29;;;;;;;;;4.00;4.00;;;;;;;;5076709;27;45459;-70
2022/08/19 03:36:56;;;;;;;;;5.00;3.33;;;;;;;;5076332;27;47216;-70
2022/08/19 03:39:22;;;;;;;;;4.33;3.33;;;;;;;;5076527;27;45367;-70
2022/08/19 03:41:49;;;;;;;;;4.00;4.00;;;;;;;;5076623;27;45337;-70
2022/08/19 03:44:17;;;;;;;;;3.00;3.00;;;;;;;;5077038;27;45297;-70
2022/08/19 03:46:43;;;;;;;;;3.00;3.00;;;;;;;;5076654;27;46455;-70
2022/08/19 03:49:08;;;;;;;;;3.33;2.67;;;;;;;;5076698;27;45497;-70
2022/08/19 03:51:35;;;;;;;;;3.67;3.67;;;;;;;;5076512;27;45402;-70
2022/08/19 03:54:02;;;;;;;;;3.00;3.00;;;;;;;;5075930;27;45391;-70
2022/08/19 03:56:27;;;;;;;;;3.00;3.00;;;;;;;;5076734;28;45512;-70
2022/08/19 03:58:53;;;;;;;;;2.67;2.67;;;;;;;;5076455;27;45376;-70
2022/08/19 04:01:20;;;;;;;;;3.00;3.00;;;;;;;;5076709;28;45360;-70
2022/08/19 04:03:46;;;;;;;;;2.00;2.00;;;;;;;;5095167;27;45720;-70
2022/08/19 04:06:12;;;;;;;;;4.67;3.67;;;;;;;;5096901;27;46421;-70
2022/08/19 04:08:37;;;;;;;;;4.00;2.33;;;;;;;;5096324;27;45390;-71
2022/08/19 04:11:06;;;;;;;;;3.00;3.00;;;;;;;;5096607;27;45313;-70
2022/08/19 04:13:31;;;;;;;;;2.67;2.67;;;;;;;;5097053;27;45302;-71
2022/08/19 04:15:56;;;;;;;;;2.00;2.00;;;;;;;;5094768;27;47210;-71
2022/08/19 04:18:22;;;;;;;;;2.00;2.00;;;;;;;;5096799;27;45405;-70
2022/08/19 04:20:47;;;;;;;;;2.00;1.67;;;;;;;;5096936;27;45464;-70
2022/08/19 04:23:13;;;;;;;;;3.67;3.67;;;;;;;;5096519;27;45622;-71
2022/08/19 04:25:39;;;;;;;;;2.33;2.33;;;;;;;;5096533;27;47285;-71
2022/08/19 04:28:04;;;;;;;;;2.67;2.67;;;;;;;;5096632;27;45428;-70
2022/08/19 04:30:30;;;;;;;;;2.00;1.00;;;;;;;;5096290;27;45438;-70
2022/08/19 04:32:55;;;;;;;;;3.00;3.00;;;;;;;;5096461;27;45478;-69
2022/08/19 04:35:20;;;;;;;;;2.67;2.67;;;;;;;;5096478;27;45424;-70
2022/08/19 04:37:45;;;;;;;;;3.67;3.67;;;;;;;;5096039;27;45412;-70
2022/08/19 04:42:54;;;;;;;;;3.67;3.67;;;;;;;;5096633;27;45453;-70
2022/08/19 04:45:20;;;;;;;;;2.00;2.00;;;;;;;;5096291;27;46108;-70
2022/08/19 04:47:45;;;;;;;;;3.00;3.00;;;;;;;;5096392;27;45409;-70
2022/08/19 04:50:11;;;;;;;;;2.00;2.00;;;;;;;;5096236;27;45523;-70
2022/08/19 04:52:36;;;;;;;;;2.00;2.00;;;;;;;;5096228;27;45400;-71
2022/08/19 04:55:02;;;;;;;;;1.33;1.33;;;;;;;;5096383;27;46146;-70
2022/08/19 04:57:27;;;;;;;;;1.00;1.00;;;;;;;;5096121;27;45376;-71
2022/08/19 04:59:56;;;;;;;;;1.33;1.33;;;;;;;;5096371;27;45234;-70
2022/08/19 05:02:24;;;;;;;;;2.00;2.00;;;;;;;;5087344;27;45821;-70
2022/08/19 05:04:50;;;;;;;;;1.67;1.67;;;;;;;;5074922;28;46392;-70
2022/08/19 05:07:15;;;;;;;;;2.00;2.00;;;;;;;;5074836;28;45449;-71
2022/08/19 05:09:40;;;;;;;;;2.00;2.00;;;;;;;;5075737;27;45442;-70
2022/08/19 05:12:06;;;;;;;;;3.67;1.33;;;;;;;;5075569;28;45449;-70
2022/08/19 05:14:31;;;;;;;;;1.00;1.00;;;;;;;;5075246;28;46273;-70
2022/08/19 05:16:56;;;;;;;;;2.00;2.00;;;;;;;;5075454;27;45482;-70
2022/08/19 05:24:49;;;;;;;;;2.33;1.67;;;;;;;;5075040;27;45393;-71
2022/08/19 05:27:14;;;;;;;;;0.67;0.67;;;;;;;;5075056;28;45293;-70
2022/08/19 05:29:39;;;;;;;;;2.00;2.00;;;;;;;;5074892;28;45426;-71
2022/08/19 05:32:07;;;;;;;;;1.67;1.67;;;;;;;;5075491;27;45332;-70
2022/08/19 05:34:32;;;;;;;;;1.00;1.00;;;;;;;;5075377;28;46413;-70
2022/08/19 05:36:58;;;;;;;;;4.00;1.00;;;;;;;;5074503;27;45347;-70
2022/08/19 05:39:25;;;;;;;;;2.33;1.00;;;;;;;;5075311;28;45283;-71
2022/08/19 05:41:52;;;;;;;;;1.00;1.00;;;;;;;;5074910;27;45450;-70
2022/08/19 05:44:18;;;;;;;;;2.67;2.67;;;;;;;;5074851;27;45391;-71
2022/08/19 05:46:46;;;;;;;;;1.00;1.00;;;;;;;;5075158;27;45444;-70
2022/08/19 05:49:12;;;;;;;;;1.00;1.00;;;;;;;;5075104;27;45367;-71
2022/08/19 05:51:37;;;;;;;;;1.00;1.00;;;;;;;;5074872;28;45460;-70
2022/08/19 05:54:04;;;;;;;;;0.00;0.00;;;;;;;;5075029;27;45312;-70
2022/08/19 05:56:30;;;;;;;;;1.00;1.00;;;;;;;;5075113;27;45435;-70
2022/08/19 05:58:55;;;;;;;;;1.00;1.00;;;;;;;;5075080;27;45298;-70
2022/08/19 06:01:20;;;;;;;;;1.00;1.00;;;;;;;;5074976;27;45358;-71
2022/08/19 06:03:47;;;;;;;;;1.00;1.00;;;;;;;;5074476;27;46042;-70
2022/08/19 06:06:13;;;;;;;;;1.00;1.00;;;;;;;;5074537;28;45442;-71
2022/08/19 06:08:39;;;;;;;;;3.00;1.33;;;;;;;;5075072;28;45327;-70
2022/08/19 06:11:16;;;;;;;;;0.33;0.33;;;;;;;;5074538;27;45499;-70
2022/08/19 06:13:42;;;;;;;;;1.67;1.67;;;;;;;;5074901;28;46109;-71
2022/08/19 06:16:07;;;;;;;;;1.00;1.00;;;;;;;;5075646;27;45372;-70
2022/08/19 06:18:33;;;;;;;;;2.00;0.33;;;;;;;;5078374;27;45356;-70
2022/08/19 06:20:58;;;;;;;;;3.00;1.00;;;;;;;;5077900;27;45315;-70
2022/08/19 06:23:23;;;;;;;;;3.33;3.00;;;;;;;;5078190;27;46442;-70
2022/08/19 06:25:48;;;;;;;;;5.33;4.33;;;;;;;;5078098;27;45360;-73
2022/08/19 06:28:14;;;;;;;;;4.00;3.00;;;;;;;;5078218;27;45312;-71
2022/08/19 06:30:39;;;;;;;;;3.33;3.00;;;;;;;;5078139;27;45301;-71
2022/08/19 06:33:04;;;;;;;;;2.33;2.33;;;;;;;;5077433;27;47206;-71
2022/08/19 06:35:29;;;;;;;;;3.33;2.00;;;;;;;;5077046;27;45407;-71
2022/08/19 06:37:55;;;;;;;;;2.00;2.00;;;;;;;;5077926;27;45355;-71
2022/08/19 06:40:20;;;;;;;;;2.00;2.00;;;;;;;;5077805;27;45252;-71
2022/08/19 06:42:45;;;;;;;;;3.00;3.00;;;;;;;;5077415;27;46084;-71
2022/08/19 06:45:10;;;;;;;;;1.00;1.00;;;;;;;;5077895;27;45272;-71
2022/08/19 06:47:36;;;;;;;;;4.00;1.67;;;;;;;;5059437;28;45303;-71
2022/08/19 06:50:03;;;;;;;;;2.00;2.00;;;;;;;;5077440;27;45264;-71
2022/08/19 06:52:29;;;;;;;;;3.00;2.00;;;;;;;;5077794;27;46199;-71
2022/08/19 06:54:56;;;;;;;;;2.00;2.00;;;;;;;;5077654;27;45538;-71
2022/08/19 06:57:21;;;;;;;;;1.00;1.00;;;;;;;;5077967;27;45387;-71
2022/08/19 06:59:47;;;;;;;;;2.67;2.00;;;;;;;;5077660;27;45478;-74
2022/08/19 07:02:12;;;;;;;;;3.00;1.00;;;;;;;;5076996;27;46292;-72
2022/08/19 07:04:38;;;;;;;;;2.00;2.00;;;;;;;;5077377;27;45660;-74
2022/08/19 07:07:12;;;;;;;;;3.00;3.00;;;;;;;;5075456;27;45451;-74
2022/08/19 07:09:38;;;;;;;;;3.67;2.00;;;;;;;;5077418;27;45466;-74
2022/08/19 07:12:04;;;;;;;;;2.00;2.00;;;;;;;;5077272;27;45421;-74
2022/08/19 07:14:29;;;;;;;;;3.67;1.00;;;;;;;;5063165;27;45399;-74
2022/08/19 07:16:55;;;;;;;;;1.00;1.00;;;;;;;;5077103;27;45945;-74
2022/08/19 07:19:21;;;;;;;;;1.67;1.00;;;;;;;;5077703;27;45278;-74
2022/08/19 07:21:47;;;;;;;;;3.00;2.00;;;;;;;;5077197;28;46268;-74
2022/08/19 07:24:13;;;;;;;;;3.33;1.00;;;;;;;;5077062;27;45288;-74
2022/08/19 07:26:39;;;;;;;;;2.00;2.00;;;;;;;;5076891;27;45283;-75
2022/08/19 07:29:05;;;;;;;;;0.33;0.00;;;;;;;;5077135;27;45426;-74
2022/08/19 07:31:31;;;;;;;;;1.00;1.00;;;;;;;;5058014;28;46352;-74
2022/08/19 07:33:57;;;;;;;;;1.67;1.67;;;;;;;;5076673;27;45344;-74
2022/08/19 07:36:30;;;;;;;;;1.33;1.33;;;;;;;;5076757;28;45546;-73
2022/08/19 07:38:56;;;;;;;;;1.00;1.00;;;;;;;;5058531;28;45595;-74
2022/08/19 07:41:23;;;;;;;;;3.00;2.00;;;;;;;;5077125;27;45447;-74
2022/08/19 07:43:48;;;;;;;;;2.00;1.00;;;;;;;;5077020;27;45257;-74
2022/08/19 07:46:14;;;;;;;;;1.67;1.67;;;;;;;;5076696;27;45423;-73
2022/08/19 07:48:41;;;;;;;;;2.33;2.33;;;;;;;;5077051;27;45320;-74
2022/08/19 07:51:08;;;;;;;;;0.00;0.00;;;;;;;;5076796;27;46264;-74
2022/08/19 07:53:34;;;;;;;;;1.00;1.00;;;;;;;;5076698;27;45442;-74
2022/08/19 07:56:03;;;;;;;;;2.33;2.33;;;;;;;;5076902;27;45342;-73
2022/08/19 07:58:29;;;;;;;;;3.00;1.00;;;;;;;;5076928;27;45443;-74
2022/08/19 08:00:54;;;;;;;;;1.00;1.00;;;;;;;;5076200;27;45305;-74
2022/08/19 08:03:20;;;;;;;;;3.00;1.00;;;;;;;;5080693;27;45414;-74
2022/08/19 08:11:14;;;;;;;;;2.67;1.67;;;;;;;;5064324;27;45405;-74
2022/08/19 08:13:40;;;;;;;;;2.00;2.00;;;;;;;;5076365;27;45416;-74
2022/08/19 08:16:06;;;;;;;;;1.00;0.33;;;;;;;;5084354;27;45408;-74
2022/08/19 08:18:32;;;;;;;;;2.00;1.67;;;;;;;;5076346;28;45296;-74
2022/08/19 08:20:58;;;;;;;;;1.67;1.67;;;;;;;;5076384;27;46312;-73
2022/08/19 08:23:26;;;;;;;;;0.33;0.33;;;;;;;;5076418;27;45452;-74
2022/08/19 08:25:54;;;;;;;;;1.00;1.00;;;;;;;;5076618;27;45319;-73
2022/08/19 08:28:19;;;;;;;;;0.33;0.00;;;;;;;;5076214;27;45332;-70
2022/08/19 08:30:47;;;;;;;;;2.00;2.00;;;;;;;;5075817;27;46010;-70
2022/08/19 08:33:12;;;;;;;;;1.33;1.33;;;;;;;;5076158;27;45544;-71
2022/08/19 08:35:38;;;;;;;;;1.00;1.00;;;;;;;;5076229;27;45359;-71
2022/08/19 08:38:04;;;;;;;;;1.67;1.67;;;;;;;;5075282;27;45461;-71
2022/08/19 08:40:38;;;;;;;;;1.33;1.00;;;;;;;;5075670;28;45302;-70
2022/08/19 08:43:18;;;;;;;;;3.00;1.00;;;;;;;;5075878;27;45509;-70
2022/08/19 08:45:50;;;;;;;;;2.67;1.00;;;;;;;;5066747;27;45474;-70
2022/08/19 08:48:20;;;;;;;;;2.67;1.00;;;;;;;;5075575;27;45366;-70
2022/08/19 08:50:48;;;;;;;;;2.67;2.00;;;;;;;;5061969;27;47397;-70
2022/08/19 08:53:14;;;;;;;;;1.00;1.00;;;;;;;;5075563;27;45391;-70
2022/08/19 08:55:40;;;;;;;;;1.00;1.00;;;;;;;;5075782;27;45431;-70
2022/08/19 08:58:09;;;;;;;;;2.33;2.00;;;;;;;;5075876;27;45486;-71
2022/08/19 09:00:37;;;;;;;;;1.67;1.67;;;;;;;;5075105;27;46132;-70
2022/08/19 09:03:05;;;;;;;;;1.33;1.33;;;;;;;;5075296;28;45352;-70
2022/08/19 09:05:40;;;;;;;;;1.00;1.00;;;;;;;;5075442;27;45329;-70
2022/08/19 09:08:08;;;;;;;;;1.00;1.00;;;;;;;;5075441;27;45471;-70
2022/08/19 09:10:33;;;;;;;;;2.33;2.33;;;;;;;;5074889;28;46281;-70
2022/08/19 09:13:08;;;;;;;;;2.33;1.33;;;;;;;;5057225;28;45457;-70
2022/08/19 09:15:37;;;;;;;;;0.33;0.33;;;;;;;;5075330;27;45366;-70
2022/08/19 09:18:03;;;;;;;;;2.67;1.33;;;;;;;;5075421;28;45343;-70
2022/08/19 09:20:29;;;;;;;;;1.00;1.00;;;;;;;;5075213;27;45537;-70
2022/08/19 09:22:54;;;;;;;;;0.67;0.67;;;;;;;;5074994;27;45485;-70
2022/08/19 09:25:24;;;;;;;;;4.00;1.00;;;;;;;;5075508;27;45288;-70
2022/08/19 09:27:51;;;;;;;;;2.33;2.33;;;;;;;;5074768;28;45403;-70
2022/08/19 09:30:18;;;;;;;;;0.67;0.67;;;;;;;;5066376;28;47261;-70
2022/08/19 09:32:45;;;;;;;;;1.67;1.00;;;;;;;;5075479;27;45415;-70
2022/08/19 09:35:10;;;;;;;;;0.33;0.33;;;;;;;;5074804;27;45345;-70
2022/08/19 09:37:36;;;;;;;;;1.00;1.00;;;;;;;;5075173;27;45332;-70
2022/08/19 09:40:01;;;;;;;;;1.00;1.00;;;;;;;;5075005;27;45371;-70
2022/08/19 09:42:26;;;;;;;;;2.33;1.00;;;;;;;;5074514;28;45385;-70
2022/08/19 09:44:52;;;;;;;;;1.00;1.00;;;;;;;;5075384;27;45405;-70
2022/08/19 09:47:17;;;;;;;;;0.67;0.67;;;;;;;;5074996;27;45453;-70
2022/08/19 09:49:42;;;;;;;;;1.00;1.00;;;;;;;;5074910;28;45492;-70
2022/08/19 09:52:10;;;;;;;;;3.33;2.00;;;;;;;;5078074;27;45261;-70
2022/08/19 09:54:36;;;;;;;;;1.00;1.00;;;;;;;;5078901;27;45284;-70
2022/08/19 09:57:02;;;;;;;;;0.67;0.67;;;;;;;;5078167;27;45202;-70
2022/08/19 09:59:28;;;;;;;;;1.00;1.00;;;;;;;;5078612;27;46010;-70
2022/08/19 10:01:53;;;;;;;;;1.00;1.00;;;;;;;;5078454;27;45328;-70
2022/08/19 10:04:19;;;;;;;;;2.33;1.00;;;;;;;;5078655;27;45375;-70
2022/08/19 10:06:47;;;;;;;;;2.00;1.33;;;;;;;;5078495;27;45423;-70
2022/08/19 10:09:14;;;;;;;;;2.67;1.00;;;;;;;;5078045;27;46389;-70
2022/08/19 10:11:40;;;;;;;;;3.00;1.00;;;;;;;;5077761;27;45359;-70
2022/08/19 10:14:05;;;;;;;;;0.00;0.00;;;;;;;;5078197;27;45382;-70
2022/08/19 10:16:31;;;;;;;;;1.00;1.00;;;;;;;;5072282;27;45554;-70
2022/08/19 10:18:56;;;;;;;;;2.00;2.00;;;;;;;;5068497;27;46207;-71
2022/08/19 10:21:24;;;;;;;;;1.33;1.33;;;;;;;;5091194;27;45397;-70
2022/08/19 10:23:50;;;;;;;;;1.00;1.00;;;;;;;;5094892;27;45491;-70
2022/08/19 10:26:18;;;;;;;;;3.00;1.00;;;;;;;;5079952;27;45433;-70
2022/08/19 10:28:43;;;;;;;;;3.00;1.00;;;;;;;;5085181;27;45389;-69
2022/08/19 10:31:10;;;;;;;;;3.00;1.67;;;;;;;;5095001;27;45424;-69
2022/08/19 10:33:36;;;;;;;;;2.00;2.00;;;;;;;;5094230;27;45339;-70
2022/08/19 10:36:04;;;;;;;;;1.00;1.00;;;;;;;;5090000;27;45249;-70
2022/08/19 10:38:29;;;;;;;;;0.67;0.67;;;;;;;;5077913;28;46350;-69
2022/08/19 10:40:54;;;;;;;;;2.00;0.33;;;;;;;;5069209;27;45253;-70
2022/08/19 10:43:20;;;;;;;;;1.33;1.33;;;;;;;;5098596;27;45688;-70
2022/08/19 10:45:51;;;;;;;;;1.00;1.00;;;;;;;;5097290;27;45495;-71
2022/08/19 10:48:16;;;;;;;;;1.67;1.67;;;;;;;;5088447;27;45331;-70
2022/08/19 10:53:25;;;;;;;;;4.67;2.00;;;;;;;;5098335;27;45450;-70
2022/08/19 10:58:34;;;;;;;;;1.00;1.00;;;;;;;;5097012;27;45994;-70
2022/08/19 11:00:59;;;;;;;;;1.67;1.67;;;;;;;;5092624;27;45414;-71
2022/08/19 11:03:25;;;;;;;;;2.33;0.67;;;;;;;;5104283;27;45504;-71
2022/08/19 11:05:57;;;;;;;;;2.33;2.00;;;;;;;;5118495;27;45393;-70
2022/08/19 11:08:24;;;;;;;;;1.50;1.50;;;;;;;;5110938;27;46203;-70
2022/08/19 11:10:50;;;;;;;;;1.67;1.00;;;;;;;;5113364;27;45502;-70
2022/08/19 11:13:15;;;;;;;;;1.00;1.00;;;;;;;;5118431;27;45440;-71
2022/08/19 11:15:40;;;;;;;;;1.33;1.33;;;;;;;;5106231;27;45540;-72
2022/08/19 11:18:06;;;;;;;;;1.00;1.00;;;;;;;;5097769;27;47015;-72
2022/08/19 11:20:31;;;;;;;;;1.00;1.00;;;;;;;;5097775;27;45312;-73
2022/08/19 11:22:56;;;;;;;;;1.00;1.00;;;;;;;;5097812;27;45369;-72
2022/08/19 11:25:22;;;;;;;;;0.67;0.67;;;;;;;;5097456;27;45267;-72
2022/08/19 11:27:50;;;;;;;;;2.00;1.67;;;;;;;;5097344;27;45948;-72
2022/08/19 11:30:16;;;;;;;;;1.33;1.33;;;;;;;;5096764;27;45415;-72
2022/08/19 11:32:41;;;;;;;;;7.00;1.00;;;;;;;;5097307;27;45471;-72
2022/08/19 11:35:06;;;;;;;;;1.33;1.33;;;;;;;;5097580;27;45381;-71
2022/08/19 11:37:37;;;;;;;;;1.00;1.00;;;;;;;;5097220;27;45682;-72
2022/08/19 11:40:03;;;;;;;;;1.33;1.33;;;;;;;;5096804;27;45652;-72
2022/08/19 11:45:13;;;;;;;;;2.00;1.00;;;;;;;;5097079;27;45500;-72
2022/08/19 11:47:39;;;;;;;;;2.00;1.00;;;;;;;;5097105;27;46299;-71
2022/08/19 11:50:05;;;;;;;;;1.67;1.67;;;;;;;;5096468;27;45366;-72
2022/08/19 11:52:31;;;;;;;;;1.00;1.00;;;;;;;;5097185;27;45359;-72
2022/08/19 11:54:56;;;;;;;;;1.00;1.00;;;;;;;;5097069;27;45409;-71
2022/08/19 11:57:21;;;;;;;;;4.00;1.67;;;;;;;;5096926;27;46235;-71
2022/08/19 11:59:50;;;;;;;;;2.00;1.00;;;;;;;;5095390;27;45738;-72
2022/08/19 12:02:16;;;;;;;;;1.33;1.33;;;;;;;;5088830;27;45289;-71
2022/08/19 12:04:41;;;;;;;;;3.00;3.00;;;;;;;;5076620;27;45380;-71
2022/08/19 12:07:06;;;;;;;;;3.00;3.00;;;;;;;;5075886;27;45588;-71
2022/08/19 12:09:34;;;;;;;;;2.33;1.00;;;;;;;;5076285;27;45324;-72
2022/08/19 12:12:02;;;;;;;;;2.00;2.00;;;;;;;;5076380;28;45622;-72
2022/08/19 12:14:27;;;;;;;;;2.33;2.00;;;;;;;;5075166;27;45581;-72
2022/08/19 12:16:53;;;;;;;;;1.33;1.00;;;;;;;;5075673;27;46393;-72
2022/08/19 12:19:18;;;;;;;;;1.00;1.00;;;;;;;;5076138;27;45306;-71
2022/08/19 12:21:43;;;;;;;;;2.00;1.00;;;;;;;;5076067;27;45462;-72
2022/08/19 12:24:09;;;;;;;;;1.33;1.33;;;;;;;;5076396;27;45398;-72
2022/08/19 12:26:34;;;;;;;;;3.00;3.00;;;;;;;;5076128;27;45454;-72
2022/08/19 12:28:59;;;;;;;;;2.00;2.00;;;;;;;;5075905;27;45493;-71
2022/08/19 12:31:25;;;;;;;;;3.33;2.00;;;;;;;;5076151;27;45414;-72
2022/08/19 12:33:52;;;;;;;;;1.33;1.33;;;;;;;;5075986;27;45519;-72
2022/08/19 12:36:17;;;;;;;;;3.00;3.00;;;;;;;;5075244;27;45693;-72
2022/08/19 12:38:43;;;;;;;;;2.33;2.33;;;;;;;;5076021;27;45328;-71
2022/08/19 12:41:10;;;;;;;;;1.00;1.00;;;;;;;;5076311;27;45466;-72
2022/08/19 12:43:36;;;;;;;;;3.00;2.00;;;;;;;;5075777;28;45363;-72
2022/08/19 12:46:03;;;;;;;;;1.67;1.67;;;;;;;;5075614;27;46369;-72
2022/08/19 12:48:29;;;;;;;;;0.00;0.00;;;;;;;;5075771;28;45445;-72
2022/08/19 12:50:54;;;;;;;;;1.00;1.00;;;;;;;;5075298;27;45492;-72
2022/08/19 12:53:19;;;;;;;;;1.00;1.00;;;;;;;;5075965;28;45288;-72
2022/08/19 12:55:45;;;;;;;;;1.00;1.00;;;;;;;;5075929;27;46186;-72
2022/08/19 12:58:12;;;;;;;;;1.67;1.00;;;;;;;;5075793;27;45210;-71
2022/08/19 13:00:37;;;;;;;;;1.00;1.00;;;;;;;;5075310;27;45446;-72
2022/08/19 13:03:03;;;;;;;;;0.00;0.00;;;;;;;;5075615;27;45406;-72
2022/08/19 13:05:30;;;;;;;;;1.00;1.00;;;;;;;;5056559;28;45916;-72
2022/08/19 13:07:56;;;;;;;;;1.00;1.00;;;;;;;;5075554;27;45403;-72
2022/08/19 13:10:22;;;;;;;;;0.00;0.00;;;;;;;;5075554;28;45436;-72
2022/08/19 13:12:48;;;;;;;;;1.00;1.00;;;;;;;;5075745;28;45438;-72
2022/08/19 13:15:14;;;;;;;;;0.33;0.00;;;;;;;;5075220;27;47305;-72
2022/08/19 13:17:39;;;;;;;;;1.33;0.00;;;;;;;;5074651;28;45823;-72
2022/08/19 13:20:07;;;;;;;;;0.00;0.00;;;;;;;;5064456;27;45445;-72
2022/08/19 13:22:33;;;;;;;;;1.00;1.00;;;;;;;;5075741;28;45327;-72
2022/08/19 13:24:58;;;;;;;;;2.00;0.00;;;;;;;;5076301;27;47114;-72
2022/08/19 13:27:23;;;;;;;;;1.00;1.00;;;;;;;;5079306;27;45510;-72
2022/08/19 13:35:18;;;;;;;;;1.00;1.00;;;;;;;;5015730;28;45759;-72
2022/08/19 13:37:44;;;;;;;;;1.67;1.67;;;;;;;;5016283;28;45546;-72
2022/08/19 13:40:18;;;;;;;;;0.00;0.00;;;;;;;;5015932;28;45361;-72
2022/08/19 13:42:46;;;;;;;;;3.00;0.00;;;;;;;;5016499;28;45519;-71
2022/08/19 13:45:11;;;;;;;;;0.33;0.33;;;;;;;;5015871;28;47362;-72
2022/08/19 13:47:42;;;;;;;;;2.00;2.00;;;;;;;;5015814;28;45500;-71
2022/08/19 13:50:07;;;;;;;;;1.00;1.00;;;;;;;;5015382;28;45340;-72
2022/08/19 13:52:33;;;;;;;;;1.00;1.00;;;;;;;;5015686;28;45506;-72
2022/08/19 13:54:58;;;;;;;;;0.33;0.33;;;;;;;;5016146;28;46167;-72
2022/08/19 13:57:23;;;;;;;;;1.00;1.00;;;;;;;;4998928;28;45278;-71
2022/08/19 13:59:48;;;;;;;;;0.33;0.33;;;;;;;;5016261;28;45703;-71
2022/08/19 14:02:14;;;;;;;;;1.00;1.00;;;;;;;;5015507;28;45489;-72
2022/08/19 14:04:39;;;;;;;;;1.00;1.00;;;;;;;;5015292;28;46384;-72
2022/08/19 14:07:05;;;;;;;;;0.00;0.00;;;;;;;;5015628;28;45587;-71
2022/08/19 14:09:30;;;;;;;;;2.00;2.00;;;;;;;;5040091;27;45337;-71
2022/08/19 14:11:56;;;;;;;;;1.00;0.67;;;;;;;;5078417;27;45523;-72
2022/08/19 14:14:21;;;;;;;;;2.33;1.00;;;;;;;;5078179;27;46208;-71
2022/08/19 14:16:47;;;;;;;;;1.00;1.00;;;;;;;;5077904;27;45434;-69
2022/08/19 14:19:12;;;;;;;;;1.00;1.00;;;;;;;;5078054;27;45281;-75
2022/08/19 14:21:37;;;;;;;;;1.00;0.33;;;;;;;;5078347;27;45293;-73
2022/08/19 14:24:02;;;;;;;;;0.33;0.33;;;;;;;;5078199;27;46318;-73
2022/08/19 14:26:28;;;;;;;;;0.00;0.00;;;;;;;;5078015;27;45315;-73
2022/08/19 14:28:54;;;;;;;;;0.67;0.67;;;;;;;;5078124;27;45290;-74
2022/08/19 14:31:21;;;;;;;;;0.33;0.33;;;;;;;;5077992;27;45300;-74
2022/08/19 14:33:47;;;;;;;;;1.00;0.00;;;;;;;;5077559;27;47143;-76
2022/08/19 14:36:12;;;;;;;;;1.00;1.00;;;;;;;;5076777;27;45457;-74
2022/08/19 14:38:37;;;;;;;;;2.00;0.67;;;;;;;;5078187;27;46730;-77
2022/08/19 14:41:35;;;;;;;;;0.00;0.00;;;;;;;;5078064;27;45432;-75
2022/08/19 14:44:01;;;;;;;;;1.00;1.00;;;;;;;;5015362;28;47394;-79
2022/08/19 14:46:27;;;;;;;;;4.00;2.33;;;;;;;;5014882;28;45428;-75
2022/08/19 14:48:53;;;;;;;;;1.67;1.67;;;;;;;;5015337;28;45337;-76
2022/08/19 14:51:19;;;;;;;;;1.67;0.33;;;;;;;;5015338;28;45329;-81
2022/08/19 14:53:44;;;;;;;;;0.67;0.67;;;;;;;;5015140;28;46906;-79
2022/08/19 14:56:11;;;;;;;;;1.00;1.00;;;;;;;;5015218;28;45337;-77
2022/08/19 14:58:36;;;;;;;;;0.33;0.33;;;;;;;;5015448;28;45453;-75
2022/08/19 15:01:03;;;;;;;;;0.33;0.33;;;;;;;;4998144;28;46387;-76
2022/08/19 15:03:28;;;;;;;;;3.00;1.00;;;;;;;;5050011;28;46049;-76
2022/08/19 15:05:53;;;;;;;;;1.00;1.00;;;;;;;;5054857;28;45401;-76